Time;durP1;ratioP1;P1;durP2;ratioP2;P2;SDS_P1;SDS_P2;PMS_P1;PMS_P2;Temp;Humidity;BMP_temperature;BMP_pressure;BME280_temperature;BME280_humidity;BME280_pressure;Samples;Min_cycle;Max_cycle;Signal;HPM_P1;HPM_P2
2023/09/08 00:00:23;;;;;;;0.00;0.00;;;;;;;;;;1735380;28;20215;-84
2023/09/08 00:01:14;;;;;;;0.00;0.00;;;;;;;;;;1736619;28;20254;-83
2023/09/08 00:02:05;;;;;;;0.00;0.00;;;;;;;;;;1738102;28;20238;-84
2023/09/08 00:02:57;;;;;;;0.00;0.00;;;;;;;;;;1737141;28;20228;-83
2023/09/08 00:03:48;;;;;;;0.00;0.00;;;;;;;;;;1737504;28;20231;-83
2023/09/08 00:04:39;;;;;;;0.00;0.00;;;;;;;;;;1736368;28;20203;-83
2023/09/08 00:05:31;;;;;;;0.00;0.00;;;;;;;;;;1734919;28;20231;-83
2023/09/08 00:06:22;;;;;;;0.00;0.00;;;;;;;;;;1735912;28;20668;-83
2023/09/08 00:07:14;;;;;;;0.00;0.00;;;;;;;;;;1735678;28;20211;-83
2023/09/08 00:08:06;;;;;;;0.00;0.00;;;;;;;;;;1735407;28;20191;-82
2023/09/08 00:08:58;;;;;;;0.00;0.00;;;;;;;;;;1735895;28;20481;-83
2023/09/08 00:09:49;;;;;;;0.00;0.00;;;;;;;;;;1735615;28;20212;-83
2023/09/08 00:10:41;;;;;;;0.00;0.00;;;;;;;;;;1735441;28;20241;-83
2023/09/08 00:11:32;;;;;;;0.00;0.00;;;;;;;;;;1736651;28;20267;-83
2023/09/08 00:12:23;;;;;;;0.00;0.00;;;;;;;;;;1737061;28;20295;-83
2023/09/08 00:13:15;;;;;;;0.00;0.00;;;;;;;;;;1736487;28;20357;-83
2023/09/08 00:14:07;;;;;;;0.00;0.00;;;;;;;;;;1737071;28;20204;-83
2023/09/08 00:14:58;;;;;;;0.00;0.00;;;;;;;;;;1736616;28;20581;-84
2023/09/08 00:15:50;;;;;;;0.00;0.00;;;;;;;;;;1735750;28;20493;-83
2023/09/08 00:16:43;;;;;;;0.00;0.00;;;;;;;;;;1736333;28;20227;-83
2023/09/08 00:17:36;;;;;;;0.00;0.00;;;;;;;;;;1737692;28;20206;-83
2023/09/08 00:18:27;;;;;;;0.00;0.00;;;;;;;;;;1737255;28;20607;-82
2023/09/08 00:19:18;;;;;;;0.00;0.00;;;;;;;;;;1737151;28;20210;-82
2023/09/08 00:20:10;;;;;;;0.00;0.00;;;;;;;;;;1736401;28;20225;-82
2023/09/08 00:21:01;;;;;;;0.00;0.00;;;;;;;;;;1736559;28;20251;-82
2023/09/08 00:21:53;;;;;;;0.00;0.00;;;;;;;;;;1736635;28;20192;-83
2023/09/08 00:22:45;;;;;;;0.00;0.00;;;;;;;;;;1735720;28;20242;-82
2023/09/08 00:23:37;;;;;;;0.00;0.00;;;;;;;;;;1735635;28;20549;-82
2023/09/08 00:24:29;;;;;;;0.00;0.00;;;;;;;;;;1735700;28;20208;-82
2023/09/08 00:25:21;;;;;;;0.00;0.00;;;;;;;;;;1734613;28;20219;-84
2023/09/08 00:26:12;;;;;;;0.00;0.00;;;;;;;;;;1735988;28;20238;-83
2023/09/08 00:27:04;;;;;;;0.00;0.00;;;;;;;;;;1735521;28;20258;-83
2023/09/08 00:27:55;;;;;;;0.00;0.00;;;;;;;;;;1735687;28;20250;-83
2023/09/08 00:28:47;;;;;;;0.00;0.00;;;;;;;;;;1735175;28;20192;-82
2023/09/08 00:29:39;;;;;;;0.10;0.10;;;;;;;;;;1733068;28;20196;-83
2023/09/08 00:30:30;;;;;;;0.00;0.00;;;;;;;;;;1734277;28;20231;-83
2023/09/08 00:31:23;;;;;;;0.00;0.00;;;;;;;;;;1735097;28;20200;-83
2023/09/08 00:32:14;;;;;;;0.00;0.00;;;;;;;;;;1735914;28;20238;-83
2023/09/08 00:33:08;;;;;;;0.00;0.00;;;;;;;;;;1734614;28;20218;-83
2023/09/08 00:34:00;;;;;;;0.00;0.00;;;;;;;;;;1735447;28;20287;-83
2023/09/08 00:34:51;;;;;;;0.00;0.00;;;;;;;;;;1734899;28;20672;-82
2023/09/08 00:35:45;;;;;;;0.00;0.00;;;;;;;;;;1734308;28;20314;-82
2023/09/08 00:36:37;;;;;;;0.00;0.00;;;;;;;;;;1735220;28;20204;-82
2023/09/08 00:37:28;;;;;;;0.00;0.00;;;;;;;;;;1734389;28;20196;-82
2023/09/08 00:38:20;;;;;;;0.00;0.00;;;;;;;;;;1734557;28;20250;-82
2023/09/08 00:39:11;;;;;;;0.00;0.00;;;;;;;;;;1735414;28;20748;-82
2023/09/08 00:40:08;;;;;;;0.00;0.00;;;;;;;;;;1735645;28;20196;-82
2023/09/08 00:41:00;;;;;;;0.00;0.00;;;;;;;;;;1734122;28;20292;-82
2023/09/08 00:41:51;;;;;;;0.00;0.00;;;;;;;;;;1736807;28;20200;-83
2023/09/08 00:42:43;;;;;;;0.00;0.00;;;;;;;;;;1736290;28;20196;-83
2023/09/08 00:43:34;;;;;;;0.00;0.00;;;;;;;;;;1735320;28;20246;-83
2023/09/08 00:44:26;;;;;;;0.00;0.00;;;;;;;;;;1729848;28;20291;-82
2023/09/08 00:45:17;;;;;;;0.00;0.00;;;;;;;;;;1730304;28;20295;-82
2023/09/08 00:46:10;;;;;;;0.00;0.00;;;;;;;;;;1732755;28;20239;-82
2023/09/08 00:47:01;;;;;;;0.00;0.00;;;;;;;;;;1730910;28;20239;-82
2023/09/08 00:47:53;;;;;;;0.00;0.00;;;;;;;;;;1734226;28;20668;-82
2023/09/08 00:48:44;;;;;;;0.00;0.00;;;;;;;;;;1735174;28;20224;-82
2023/09/08 00:49:36;;;;;;;0.00;0.00;;;;;;;;;;1735048;28;20227;-82
2023/09/08 00:50:27;;;;;;;0.00;0.00;;;;;;;;;;1734796;28;20227;-83
2023/09/08 00:51:19;;;;;;;0.00;0.00;;;;;;;;;;1735433;28;20231;-81
2023/09/08 00:52:11;;;;;;;0.00;0.00;;;;;;;;;;1735840;28;20593;-82
2023/09/08 00:53:02;;;;;;;0.00;0.00;;;;;;;;;;1735852;28;20238;-82
2023/09/08 00:53:54;;;;;;;0.00;0.00;;;;;;;;;;1734756;28;20211;-83
2023/09/08 00:54:45;;;;;;;0.00;0.00;;;;;;;;;;1735568;28;21053;-83
2023/09/08 00:55:40;;;;;;;0.00;0.00;;;;;;;;;;1733921;28;20483;-82
2023/09/08 00:56:31;;;;;;;0.00;0.00;;;;;;;;;;1734674;28;20204;-82
2023/09/08 00:57:23;;;;;;;0.00;0.00;;;;;;;;;;1735388;28;20200;-82
2023/09/08 00:58:15;;;;;;;0.00;0.00;;;;;;;;;;1734288;28;20596;-82
2023/09/08 00:59:07;;;;;;;0.00;0.00;;;;;;;;;;1735104;28;20246;-82
2023/09/08 00:59:58;;;;;;;0.00;0.00;;;;;;;;;;1735665;28;20589;-82
2023/09/08 01:00:49;;;;;;;0.00;0.00;;;;;;;;;;1734726;28;20251;-82
2023/09/08 01:01:41;;;;;;;0.00;0.00;;;;;;;;;;1735598;28;20632;-82
2023/09/08 01:02:32;;;;;;;0.00;0.00;;;;;;;;;;1735099;28;20667;-83
2023/09/08 01:03:23;;;;;;;0.00;0.00;;;;;;;;;;1734736;28;20203;-83
2023/09/08 01:04:15;;;;;;;0.00;0.00;;;;;;;;;;1735213;28;20199;-83
2023/09/08 01:05:06;;;;;;;0.00;0.00;;;;;;;;;;1735273;28;20750;-83
2023/09/08 01:05:59;;;;;;;0.00;0.00;;;;;;;;;;1733861;28;20264;-83
2023/09/08 01:06:50;;;;;;;0.00;0.00;;;;;;;;;;1735432;28;20208;-82
2023/09/08 01:07:43;;;;;;;0.00;0.00;;;;;;;;;;1735275;28;20661;-83
2023/09/08 01:08:35;;;;;;;0.00;0.00;;;;;;;;;;1734760;28;20565;-84
2023/09/08 01:09:28;;;;;;;0.00;0.00;;;;;;;;;;1735341;28;20199;-83
2023/09/08 01:10:19;;;;;;;0.00;0.00;;;;;;;;;;1733988;28;20204;-84
2023/09/08 01:11:11;;;;;;;0.00;0.00;;;;;;;;;;1734709;28;20214;-84
2023/09/08 01:12:04;;;;;;;0.00;0.00;;;;;;;;;;1735379;28;20208;-84
2023/09/08 01:12:55;;;;;;;0.00;0.00;;;;;;;;;;1734809;28;20204;-84
2023/09/08 01:13:46;;;;;;;0.00;0.00;;;;;;;;;;1735314;28;20203;-84
2023/09/08 01:14:38;;;;;;;0.00;0.00;;;;;;;;;;1734838;28;20204;-85
2023/09/08 01:15:29;;;;;;;0.00;0.00;;;;;;;;;;1734122;28;20570;-84
2023/09/08 01:16:20;;;;;;;0.00;0.00;;;;;;;;;;1734531;28;20231;-84
2023/09/08 01:17:13;;;;;;;0.00;0.00;;;;;;;;;;1734879;28;20203;-84
2023/09/08 01:18:04;;;;;;;0.00;0.00;;;;;;;;;;1734930;28;20215;-84
2023/09/08 01:18:56;;;;;;;0.00;0.00;;;;;;;;;;1733997;28;20223;-84
2023/09/08 01:19:49;;;;;;;0.00;0.00;;;;;;;;;;1734539;28;20636;-84
2023/09/08 01:20:48;;;;;;;0.00;0.00;;;;;;;;;;1733788;28;20953;-84
2023/09/08 01:21:59;;;;;;;0.00;0.00;;;;;;;;;;1734805;28;20207;-84
2023/09/08 01:23:12;;;;;;;0.00;0.00;;;;;;;;;;1725068;28;20200;-84
2023/09/08 01:24:18;;;;;;;0.00;0.00;;;;;;;;;;1730889;28;20256;-84
2023/09/08 01:25:18;;;;;;;0.00;0.00;;;;;;;;;;1733818;28;20239;-82
2023/09/08 01:26:12;;;;;;;0.00;0.00;;;;;;;;;;1733537;28;21252;-83
2023/09/08 01:27:03;;;;;;;0.00;0.00;;;;;;;;;;1734661;28;20329;-83
2023/09/08 01:27:54;;;;;;;0.00;0.00;;;;;;;;;;1734441;28;20549;-83
2023/09/08 01:28:50;;;;;;;0.00;0.00;;;;;;;;;;1734421;28;20611;-83
2023/09/08 01:29:42;;;;;;;0.00;0.00;;;;;;;;;;1734726;28;20215;-84
2023/09/08 01:30:34;;;;;;;0.00;0.00;;;;;;;;;;1736581;28;20196;-85
2023/09/08 01:31:26;;;;;;;0.00;0.00;;;;;;;;;;1737211;28;20263;-84
2023/09/08 01:32:18;;;;;;;0.00;0.00;;;;;;;;;;1738345;28;20207;-85
2023/09/08 01:33:10;;;;;;;0.00;0.00;;;;;;;;;;1736235;28;20207;-85
2023/09/08 01:34:05;;;;;;;0.00;0.00;;;;;;;;;;1734171;28;20645;-85
2023/09/08 01:34:57;;;;;;;0.00;0.00;;;;;;;;;;1736204;28;20511;-85
2023/09/08 01:35:49;;;;;;;0.00;0.00;;;;;;;;;;1736297;28;20289;-85
2023/09/08 01:36:40;;;;;;;0.00;0.00;;;;;;;;;;1737599;28;20239;-85
2023/09/08 01:37:31;;;;;;;0.00;0.00;;;;;;;;;;1737860;28;20231;-84
2023/09/08 01:38:23;;;;;;;0.00;0.00;;;;;;;;;;1737198;28;20285;-84
2023/09/08 01:39:14;;;;;;;0.00;0.00;;;;;;;;;;1738144;28;20208;-84
2023/09/08 01:40:06;;;;;;;0.00;0.00;;;;;;;;;;1737972;28;20266;-84
2023/09/08 01:41:01;;;;;;;0.00;0.00;;;;;;;;;;1736268;28;20231;-85
2023/09/08 01:41:52;;;;;;;0.00;0.00;;;;;;;;;;1736867;28;20303;-84
2023/09/08 01:42:43;;;;;;;0.00;0.00;;;;;;;;;;1732833;28;20239;-84
2023/09/08 01:43:35;;;;;;;0.00;0.00;;;;;;;;;;1740111;28;20254;-84
2023/09/08 01:44:26;;;;;;;0.00;0.00;;;;;;;;;;1739671;28;20204;-84
2023/09/08 01:45:18;;;;;;;0.00;0.00;;;;;;;;;;1737650;28;20278;-84
2023/09/08 01:46:10;;;;;;;0.00;0.00;;;;;;;;;;1735691;28;20235;-84
2023/09/08 01:47:01;;;;;;;0.00;0.00;;;;;;;;;;1735698;28;20192;-84
2023/09/08 01:47:53;;;;;;;0.00;0.00;;;;;;;;;;1736144;28;20207;-84
2023/09/08 01:48:44;;;;;;;0.00;0.00;;;;;;;;;;1735023;28;20262;-84
2023/09/08 01:49:35;;;;;;;0.00;0.00;;;;;;;;;;1735705;28;20200;-84
2023/09/08 01:50:27;;;;;;;0.00;0.00;;;;;;;;;;1735652;28;20211;-84
2023/09/08 01:51:18;;;;;;;0.00;0.00;;;;;;;;;;1736130;28;20225;-84
2023/09/08 01:52:09;;;;;;;0.00;0.00;;;;;;;;;;1735762;28;20214;-85
2023/09/08 01:53:01;;;;;;;0.00;0.00;;;;;;;;;;1736194;28;20212;-84
2023/09/08 01:53:52;;;;;;;0.00;0.00;;;;;;;;;;1736476;28;20250;-85
2023/09/08 01:54:44;;;;;;;0.00;0.00;;;;;;;;;;1736542;28;20223;-84
2023/09/08 01:55:35;;;;;;;0.00;0.00;;;;;;;;;;1734480;28;20255;-85
2023/09/08 01:56:29;;;;;;;0.00;0.00;;;;;;;;;;1734546;28;20220;-85
2023/09/08 01:57:20;;;;;;;0.00;0.00;;;;;;;;;;1735563;28;20712;-85
2023/09/08 01:58:12;;;;;;;0.00;0.00;;;;;;;;;;1734532;28;20231;-85
2023/09/08 01:59:04;;;;;;;0.00;0.00;;;;;;;;;;1734753;28;20259;-84
2023/09/08 01:59:55;;;;;;;0.00;0.00;;;;;;;;;;1734807;28;20257;-84
2023/09/08 02:00:49;;;;;;;0.00;0.00;;;;;;;;;;1734138;28;20231;-84
2023/09/08 02:01:40;;;;;;;0.00;0.00;;;;;;;;;;1734657;28;20660;-84
2023/09/08 02:02:31;;;;;;;0.00;0.00;;;;;;;;;;1734639;28;20246;-84
2023/09/08 02:03:23;;;;;;;0.00;0.00;;;;;;;;;;1734382;28;20299;-84
2023/09/08 02:04:14;;;;;;;0.00;0.00;;;;;;;;;;1734577;28;20208;-84
2023/09/08 02:05:06;;;;;;;0.00;0.00;;;;;;;;;;1734714;28;20258;-84
2023/09/08 02:05:58;;;;;;;0.00;0.00;;;;;;;;;;1733568;28;20282;-84
2023/09/08 02:06:49;;;;;;;0.00;0.00;;;;;;;;;;1734441;28;20310;-84
2023/09/08 02:07:40;;;;;;;0.00;0.00;;;;;;;;;;1735213;28;20290;-84
2023/09/08 02:08:32;;;;;;;0.00;0.00;;;;;;;;;;1734493;28;20608;-84
2023/09/08 02:09:30;;;;;;;0.00;0.00;;;;;;;;;;1734821;28;20530;-84
2023/09/08 02:10:22;;;;;;;0.00;0.00;;;;;;;;;;1734529;28;20202;-81
2023/09/08 02:11:13;;;;;;;0.00;0.00;;;;;;;;;;1735596;28;20235;-83
2023/09/08 02:12:06;;;;;;;0.00;0.00;;;;;;;;;;1735873;28;20269;-83
2023/09/08 02:12:58;;;;;;;0.00;0.00;;;;;;;;;;1735744;28;20206;-83
2023/09/08 02:13:49;;;;;;;0.00;0.00;;;;;;;;;;1736346;28;20218;-82
2023/09/08 02:14:41;;;;;;;0.00;0.00;;;;;;;;;;1736041;28;20250;-82
2023/09/08 02:15:35;;;;;;;0.00;0.00;;;;;;;;;;1735360;28;20274;-83
2023/09/08 02:16:28;;;;;;;0.00;0.00;;;;;;;;;;1735611;28;20196;-82
2023/09/08 02:17:19;;;;;;;0.00;0.00;;;;;;;;;;1735654;28;20203;-83
2023/09/08 02:18:11;;;;;;;0.00;0.00;;;;;;;;;;1735556;28;20211;-83
2023/09/08 02:19:02;;;;;;;0.00;0.00;;;;;;;;;;1735677;28;20660;-83
2023/09/08 02:19:54;;;;;;;0.00;0.00;;;;;;;;;;1736411;28;20220;-83
2023/09/08 02:20:45;;;;;;;0.00;0.00;;;;;;;;;;1733317;28;20235;-82
2023/09/08 02:21:37;;;;;;;0.00;0.00;;;;;;;;;;1736524;28;20218;-82
2023/09/08 02:22:29;;;;;;;0.00;0.00;;;;;;;;;;1736943;28;20223;-82
2023/09/08 02:23:20;;;;;;;0.00;0.00;;;;;;;;;;1736261;28;20675;-81
2023/09/08 02:24:11;;;;;;;0.00;0.00;;;;;;;;;;1737213;28;20566;-81
2023/09/08 02:25:06;;;;;;;0.00;0.00;;;;;;;;;;1738209;28;20274;-81
2023/09/08 02:25:57;;;;;;;0.00;0.00;;;;;;;;;;1739550;28;20267;-82
2023/09/08 02:26:48;;;;;;;0.00;0.00;;;;;;;;;;1744748;28;20199;-82
2023/09/08 02:27:42;;;;;;;0.00;0.00;;;;;;;;;;1736969;28;20195;-82
2023/09/08 02:28:33;;;;;;;0.00;0.00;;;;;;;;;;1735468;28;20578;-82
2023/09/08 02:29:24;;;;;;;0.00;0.00;;;;;;;;;;1737639;28;20199;-82
2023/09/08 02:30:16;;;;;;;0.00;0.00;;;;;;;;;;1738905;28;20207;-81
2023/09/08 02:31:07;;;;;;;0.00;0.00;;;;;;;;;;1741322;28;20360;-82
2023/09/08 02:31:59;;;;;;;0.00;0.00;;;;;;;;;;1737816;28;20552;-82
2023/09/08 02:32:50;;;;;;;0.00;0.00;;;;;;;;;;1736221;28;20203;-82
2023/09/08 02:33:41;;;;;;;0.00;0.00;;;;;;;;;;1735205;28;20211;-82
2023/09/08 02:34:36;;;;;;;0.00;0.00;;;;;;;;;;1738489;28;20207;-82
2023/09/08 02:35:27;;;;;;;0.00;0.00;;;;;;;;;;1737787;28;20200;-81
2023/09/08 02:36:25;;;;;;;0.00;0.00;;;;;;;;;;1739464;28;20195;-81
2023/09/08 02:37:18;;;;;;;0.00;0.00;;;;;;;;;;1739293;28;20278;-81
2023/09/08 02:38:09;;;;;;;0.00;0.00;;;;;;;;;;1738415;28;20214;-81
2023/09/08 02:39:00;;;;;;;0.00;0.00;;;;;;;;;;1736518;28;20234;-81
2023/09/08 02:39:52;;;;;;;0.00;0.00;;;;;;;;;;1735525;28;20204;-81
2023/09/08 02:40:43;;;;;;;0.00;0.00;;;;;;;;;;1733979;28;20281;-81
2023/09/08 02:41:35;;;;;;;0.00;0.00;;;;;;;;;;1735702;28;20223;-81
2023/09/08 02:42:26;;;;;;;0.00;0.00;;;;;;;;;;1735950;28;20239;-81
2023/09/08 02:43:20;;;;;;;0.00;0.00;;;;;;;;;;1737144;28;20648;-83
2023/09/08 02:44:11;;;;;;;0.00;0.00;;;;;;;;;;1736672;28;21036;-83
2023/09/08 02:45:05;;;;;;;0.00;0.00;;;;;;;;;;1736013;28;20310;-83
2023/09/08 02:45:57;;;;;;;0.00;0.00;;;;;;;;;;1738668;28;20242;-83
2023/09/08 02:46:48;;;;;;;0.00;0.00;;;;;;;;;;1742007;28;20241;-83
2023/09/08 02:47:40;;;;;;;0.00;0.00;;;;;;;;;;1746234;28;20191;-83
2023/09/08 02:48:31;;;;;;;0.00;0.00;;;;;;;;;;1745574;28;20206;-83
2023/09/08 02:49:23;;;;;;;0.00;0.00;;;;;;;;;;1742085;28;20192;-83
2023/09/08 02:50:15;;;;;;;0.00;0.00;;;;;;;;;;1736414;28;20218;-82
2023/09/08 02:51:06;;;;;;;0.00;0.00;;;;;;;;;;1735192;28;20229;-83
2023/09/08 02:51:58;;;;;;;0.00;0.00;;;;;;;;;;1735032;28;20199;-83
2023/09/08 02:52:50;;;;;;;0.00;0.00;;;;;;;;;;1735588;28;20219;-83
2023/09/08 02:53:41;;;;;;;0.00;0.00;;;;;;;;;;1733841;28;20537;-83
2023/09/08 02:54:33;;;;;;;0.00;0.00;;;;;;;;;;1733280;28;21249;-83
2023/09/08 02:55:24;;;;;;;0.00;0.00;;;;;;;;;;1735937;28;20227;-83
2023/09/08 02:56:16;;;;;;;0.00;0.00;;;;;;;;;;1739245;28;20566;-83
2023/09/08 02:57:07;;;;;;;0.00;0.00;;;;;;;;;;1737998;28;20217;-83
2023/09/08 02:57:58;;;;;;;0.00;0.00;;;;;;;;;;1736006;28;20203;-83
2023/09/08 02:58:51;;;;;;;0.00;0.00;;;;;;;;;;1738965;28;20210;-83
2023/09/08 02:59:42;;;;;;;0.00;0.00;;;;;;;;;;1737687;28;20246;-83
2023/09/08 03:00:34;;;;;;;0.00;0.00;;;;;;;;;;1736127;28;20242;-83
2023/09/08 03:01:25;;;;;;;0.00;0.00;;;;;;;;;;1739057;28;20184;-83
2023/09/08 03:02:17;;;;;;;0.00;0.00;;;;;;;;;;1737844;28;20209;-83
2023/09/08 03:03:08;;;;;;;0.00;0.00;;;;;;;;;;1736958;28;20234;-83
2023/09/08 03:04:00;;;;;;;0.00;0.00;;;;;;;;;;1744017;28;20242;-83
2023/09/08 03:04:51;;;;;;;0.00;0.00;;;;;;;;;;1739785;28;20648;-83
2023/09/08 03:05:42;;;;;;;0.00;0.00;;;;;;;;;;1738170;28;20579;-83
2023/09/08 03:06:36;;;;;;;0.00;0.00;;;;;;;;;;1740206;28;20294;-83
2023/09/08 03:07:27;;;;;;;0.00;0.00;;;;;;;;;;1735577;28;20262;-83
2023/09/08 03:08:18;;;;;;;0.00;0.00;;;;;;;;;;1735883;28;20317;-83
2023/09/08 03:09:10;;;;;;;0.00;0.00;;;;;;;;;;1737568;28;20256;-83
2023/09/08 03:10:03;;;;;;;0.00;0.00;;;;;;;;;;1734815;28;20246;-83
2023/09/08 03:10:57;;;;;;;0.00;0.00;;;;;;;;;;1733734;28;20952;-83
2023/09/08 03:11:48;;;;;;;0.00;0.00;;;;;;;;;;1735974;28;20207;-83
2023/09/08 03:12:40;;;;;;;0.00;0.00;;;;;;;;;;1735765;28;20200;-83
2023/09/08 03:13:31;;;;;;;0.00;0.00;;;;;;;;;;1737351;28;20663;-83
2023/09/08 03:14:25;;;;;;;0.00;0.00;;;;;;;;;;1737512;28;20479;-83
2023/09/08 03:15:16;;;;;;;0.00;0.00;;;;;;;;;;1735693;28;20227;-83
2023/09/08 03:16:09;;;;;;;0.00;0.00;;;;;;;;;;1739308;28;20222;-83
2023/09/08 03:17:00;;;;;;;0.00;0.00;;;;;;;;;;1735119;28;20633;-83
2023/09/08 03:17:51;;;;;;;0.00;0.00;;;;;;;;;;1736508;28;20199;-83
2023/09/08 03:18:43;;;;;;;0.00;0.00;;;;;;;;;;1736262;28;20282;-83
2023/09/08 03:19:34;;;;;;;0.00;0.00;;;;;;;;;;1741207;28;20265;-83
2023/09/08 03:20:26;;;;;;;0.00;0.00;;;;;;;;;;1738037;28;20226;-83
2023/09/08 03:21:18;;;;;;;0.00;0.00;;;;;;;;;;1738465;28;20199;-83
2023/09/08 03:22:09;;;;;;;0.00;0.00;;;;;;;;;;1739584;28;20226;-83
2023/09/08 03:23:00;;;;;;;0.00;0.00;;;;;;;;;;1737820;28;20243;-83
2023/09/08 03:23:52;;;;;;;0.00;0.00;;;;;;;;;;1740312;28;20786;-83
2023/09/08 03:24:43;;;;;;;0.00;0.00;;;;;;;;;;1738004;28;20255;-83
2023/09/08 03:25:34;;;;;;;0.00;0.00;;;;;;;;;;1735355;28;20297;-83
2023/09/08 03:26:26;;;;;;;0.00;0.00;;;;;;;;;;1737420;28;20207;-83
2023/09/08 03:27:17;;;;;;;0.00;0.00;;;;;;;;;;1735457;28;20246;-83
2023/09/08 03:28:08;;;;;;;0.00;0.00;;;;;;;;;;1734290;28;20231;-83
2023/09/08 03:29:00;;;;;;;0.00;0.00;;;;;;;;;;1739498;28;20203;-83
2023/09/08 03:29:53;;;;;;;0.00;0.00;;;;;;;;;;1735621;28;20238;-83
2023/09/08 03:30:44;;;;;;;0.00;0.00;;;;;;;;;;1739371;28;20250;-83
2023/09/08 03:31:36;;;;;;;0.00;0.00;;;;;;;;;;1737226;28;20207;-83
2023/09/08 03:32:28;;;;;;;0.00;0.00;;;;;;;;;;1736624;28;20298;-83
2023/09/08 03:33:20;;;;;;;0.00;0.00;;;;;;;;;;1737131;28;20192;-83
2023/09/08 03:34:12;;;;;;;0.00;0.00;;;;;;;;;;1739341;28;20544;-83
2023/09/08 03:35:07;;;;;;;0.00;0.00;;;;;;;;;;1737222;28;20333;-83
2023/09/08 03:35:58;;;;;;;0.00;0.00;;;;;;;;;;1739997;28;20588;-83
2023/09/08 03:36:50;;;;;;;0.00;0.00;;;;;;;;;;1737759;28;20576;-83
2023/09/08 03:37:41;;;;;;;0.00;0.00;;;;;;;;;;1735162;28;20219;-83
2023/09/08 03:38:33;;;;;;;0.00;0.00;;;;;;;;;;1737990;28;20210;-82
2023/09/08 03:39:25;;;;;;;0.00;0.00;;;;;;;;;;1738296;28;20210;-82
2023/09/08 03:40:16;;;;;;;0.00;0.00;;;;;;;;;;1736821;28;20330;-82
2023/09/08 03:41:07;;;;;;;0.00;0.00;;;;;;;;;;1740157;28;20205;-82
2023/09/08 03:41:59;;;;;;;0.00;0.00;;;;;;;;;;1739365;28;20196;-82
2023/09/08 03:42:50;;;;;;;0.00;0.00;;;;;;;;;;1736239;28;20223;-82
2023/09/08 03:43:42;;;;;;;0.00;0.00;;;;;;;;;;1736443;28;20238;-81
2023/09/08 03:44:33;;;;;;;0.00;0.00;;;;;;;;;;1734827;28;20245;-83
2023/09/08 03:45:26;;;;;;;0.00;0.00;;;;;;;;;;1736839;28;20635;-83
2023/09/08 03:46:17;;;;;;;0.00;0.00;;;;;;;;;;1738032;28;20235;-83
2023/09/08 03:47:08;;;;;;;0.00;0.00;;;;;;;;;;1738196;28;20254;-83
2023/09/08 03:48:00;;;;;;;0.00;0.00;;;;;;;;;;1740163;28;20214;-83
2023/09/08 03:48:52;;;;;;;0.00;0.00;;;;;;;;;;1740839;28;20250;-83
2023/09/08 03:49:44;;;;;;;0.00;0.00;;;;;;;;;;1737414;28;20314;-83
2023/09/08 03:50:35;;;;;;;0.00;0.00;;;;;;;;;;1734000;28;20262;-83
2023/09/08 03:51:28;;;;;;;0.00;0.00;;;;;;;;;;1737452;28;20596;-84
2023/09/08 03:52:19;;;;;;;0.00;0.00;;;;;;;;;;1736670;28;20894;-84
2023/09/08 03:53:11;;;;;;;0.00;0.00;;;;;;;;;;1735519;28;20192;-84
2023/09/08 03:54:03;;;;;;;0.00;0.00;;;;;;;;;;1740831;28;20267;-83
2023/09/08 03:54:54;;;;;;;0.00;0.00;;;;;;;;;;1736225;28;20207;-82
2023/09/08 03:55:46;;;;;;;0.00;0.00;;;;;;;;;;1734754;28;20227;-82
2023/09/08 03:56:37;;;;;;;0.00;0.00;;;;;;;;;;1738508;28;20548;-82
2023/09/08 03:57:28;;;;;;;0.00;0.00;;;;;;;;;;1737026;28;20192;-83
2023/09/08 03:58:20;;;;;;;0.00;0.00;;;;;;;;;;1737485;28;20200;-83
2023/09/08 03:59:11;;;;;;;0.00;0.00;;;;;;;;;;1739757;28;20656;-83
2023/09/08 04:00:06;;;;;;;0.00;0.00;;;;;;;;;;1735979;28;20215;-83
2023/09/08 04:00:59;;;;;;;0.00;0.00;;;;;;;;;;1741473;28;20675;-83
2023/09/08 04:01:50;;;;;;;0.00;0.00;;;;;;;;;;1738736;28;20636;-83
2023/09/08 04:02:42;;;;;;;0.00;0.00;;;;;;;;;;1736971;28;20224;-83
2023/09/08 04:03:34;;;;;;;0.00;0.00;;;;;;;;;;1741153;28;20199;-83
2023/09/08 04:04:25;;;;;;;0.00;0.00;;;;;;;;;;1741406;28;20192;-83
2023/09/08 04:05:16;;;;;;;0.00;0.00;;;;;;;;;;1737574;28;20196;-84
2023/09/08 04:06:09;;;;;;;0.00;0.00;;;;;;;;;;1742301;28;20620;-84
2023/09/08 04:07:00;;;;;;;0.00;0.00;;;;;;;;;;1739194;28;20223;-84
2023/09/08 04:07:52;;;;;;;0.00;0.00;;;;;;;;;;1735444;28;20708;-84
2023/09/08 04:08:43;;;;;;;0.00;0.00;;;;;;;;;;1739902;28;20195;-83
2023/09/08 04:09:34;;;;;;;0.00;0.00;;;;;;;;;;1739033;28;20207;-84
2023/09/08 04:10:26;;;;;;;0.00;0.00;;;;;;;;;;1736289;28;20195;-83
2023/09/08 04:11:17;;;;;;;0.00;0.00;;;;;;;;;;1737765;28;20626;-83
2023/09/08 04:12:10;;;;;;;0.00;0.00;;;;;;;;;;1739232;28;20203;-83
2023/09/08 04:13:02;;;;;;;0.00;0.00;;;;;;;;;;1739627;28;20249;-83
2023/09/08 04:13:53;;;;;;;0.00;0.00;;;;;;;;;;1742144;28;20220;-83
2023/09/08 04:14:45;;;;;;;0.00;0.00;;;;;;;;;;1739256;28;20576;-84
2023/09/08 04:15:37;;;;;;;0.00;0.00;;;;;;;;;;1735546;28;20259;-83
2023/09/08 04:16:29;;;;;;;0.00;0.00;;;;;;;;;;1738998;28;20238;-83
2023/09/08 04:17:20;;;;;;;0.00;0.00;;;;;;;;;;1739827;28;20261;-83
2023/09/08 04:18:12;;;;;;;0.00;0.00;;;;;;;;;;1735949;28;20969;-83
2023/09/08 04:19:03;;;;;;;0.00;0.00;;;;;;;;;;1737011;28;20234;-83
2023/09/08 04:19:54;;;;;;;0.00;0.00;;;;;;;;;;1736435;28;21159;-83
2023/09/08 04:20:46;;;;;;;0.00;0.00;;;;;;;;;;1736988;28;20601;-82
2023/09/08 04:21:38;;;;;;;0.00;0.00;;;;;;;;;;1737029;28;20640;-83
2023/09/08 04:22:29;;;;;;;0.00;0.00;;;;;;;;;;1737417;28;20207;-82
2023/09/08 04:23:21;;;;;;;0.00;0.00;;;;;;;;;;1736544;28;20219;-83
2023/09/08 04:24:12;;;;;;;0.00;0.00;;;;;;;;;;1739657;28;20257;-83
2023/09/08 04:25:05;;;;;;;0.00;0.00;;;;;;;;;;1738512;28;20239;-83
2023/09/08 04:25:57;;;;;;;0.00;0.00;;;;;;;;;;1741117;28;20811;-83
2023/09/08 04:26:48;;;;;;;0.00;0.00;;;;;;;;;;1737707;28;20242;-82
2023/09/08 04:27:40;;;;;;;0.00;0.00;;;;;;;;;;1736802;28;20215;-82
2023/09/08 04:28:32;;;;;;;0.00;0.00;;;;;;;;;;1739451;28;20195;-82
2023/09/08 04:29:23;;;;;;;0.00;0.00;;;;;;;;;;1740201;28;20604;-84
2023/09/08 04:30:15;;;;;;;0.00;0.00;;;;;;;;;;1735934;28;20219;-84
2023/09/08 04:31:06;;;;;;;0.00;0.00;;;;;;;;;;1741688;28;20241;-83
2023/09/08 04:31:59;;;;;;;0.00;0.00;;;;;;;;;;1738870;28;20200;-83
2023/09/08 04:32:50;;;;;;;0.00;0.00;;;;;;;;;;1739025;28;20259;-84
2023/09/08 04:33:43;;;;;;;0.00;0.00;;;;;;;;;;1739195;28;20250;-84
2023/09/08 04:34:34;;;;;;;0.00;0.00;;;;;;;;;;1743403;28;20218;-83
2023/09/08 04:35:25;;;;;;;0.00;0.00;;;;;;;;;;1739572;28;20199;-84
2023/09/08 04:36:17;;;;;;;0.00;0.00;;;;;;;;;;1741071;28;20622;-84
2023/09/08 04:37:08;;;;;;;0.00;0.00;;;;;;;;;;1740543;28;20218;-84
2023/09/08 04:37:59;;;;;;;0.00;0.00;;;;;;;;;;1739105;28;20191;-84
2023/09/08 04:38:51;;;;;;;0.00;0.00;;;;;;;;;;1740411;28;20209;-84
2023/09/08 04:39:42;;;;;;;0.00;0.00;;;;;;;;;;1739383;28;20215;-84
2023/09/08 04:40:34;;;;;;;0.00;0.00;;;;;;;;;;1742326;28;20210;-85
2023/09/08 04:41:25;;;;;;;0.00;0.00;;;;;;;;;;1740468;28;20196;-85
2023/09/08 04:42:17;;;;;;;0.00;0.00;;;;;;;;;;1737092;28;20262;-85
2023/09/08 04:43:08;;;;;;;0.00;0.00;;;;;;;;;;1737101;28;20492;-85
2023/09/08 04:44:00;;;;;;;0.00;0.00;;;;;;;;;;1738828;28;20235;-85
2023/09/08 04:44:52;;;;;;;0.00;0.00;;;;;;;;;;1738436;28;20239;-85
2023/09/08 04:45:44;;;;;;;0.00;0.00;;;;;;;;;;1739721;28;20262;-84
2023/09/08 04:46:35;;;;;;;0.00;0.00;;;;;;;;;;1742955;28;20211;-84
2023/09/08 04:47:29;;;;;;;0.00;0.00;;;;;;;;;;1743375;28;20211;-84
2023/09/08 04:48:20;;;;;;;0.00;0.00;;;;;;;;;;1741734;28;20526;-84
2023/09/08 04:49:11;;;;;;;0.00;0.00;;;;;;;;;;1743377;28;20206;-84
2023/09/08 04:50:06;;;;;;;0.00;0.00;;;;;;;;;;1739338;28;21045;-83
2023/09/08 04:50:58;;;;;;;0.00;0.00;;;;;;;;;;1740696;28;20754;-84
2023/09/08 04:51:49;;;;;;;0.00;0.00;;;;;;;;;;1737740;28;20239;-83
2023/09/08 04:52:41;;;;;;;0.00;0.00;;;;;;;;;;1737593;28;20204;-83
2023/09/08 04:53:33;;;;;;;0.00;0.00;;;;;;;;;;1737471;28;20234;-83
2023/09/08 04:54:27;;;;;;;0.00;0.00;;;;;;;;;;1739967;28;20202;-83
2023/09/08 04:55:19;;;;;;;0.00;0.00;;;;;;;;;;1736749;28;20203;-83
2023/09/08 04:56:10;;;;;;;0.00;0.00;;;;;;;;;;1741457;28;20206;-83
2023/09/08 04:57:02;;;;;;;0.00;0.00;;;;;;;;;;1738415;28;20230;-83
2023/09/08 04:57:53;;;;;;;0.00;0.00;;;;;;;;;;1737965;28;20208;-84
2023/09/08 04:58:45;;;;;;;0.00;0.00;;;;;;;;;;1737661;28;20611;-84
2023/09/08 04:59:38;;;;;;;0.00;0.00;;;;;;;;;;1737375;28;20200;-83
2023/09/08 05:00:30;;;;;;;0.00;0.00;;;;;;;;;;1738088;28;20240;-82
2023/09/08 05:01:23;;;;;;;0.00;0.00;;;;;;;;;;1739785;28;20628;-83
2023/09/08 05:02:14;;;;;;;0.00;0.00;;;;;;;;;;1739247;28;20249;-83
2023/09/08 05:03:08;;;;;;;0.00;0.00;;;;;;;;;;1736886;28;20203;-84
2023/09/08 05:03:59;;;;;;;0.00;0.00;;;;;;;;;;1741897;28;20676;-84
2023/09/08 05:04:50;;;;;;;0.00;0.00;;;;;;;;;;1740549;28;20204;-83
2023/09/08 05:05:42;;;;;;;0.00;0.00;;;;;;;;;;1742158;28;20238;-84
2023/09/08 05:06:33;;;;;;;0.00;0.00;;;;;;;;;;1739001;28;20238;-83
2023/09/08 05:07:24;;;;;;;0.00;0.00;;;;;;;;;;1737202;28;20200;-83
2023/09/08 05:08:17;;;;;;;0.00;0.00;;;;;;;;;;1736374;28;20652;-83
2023/09/08 05:09:08;;;;;;;0.00;0.00;;;;;;;;;;1739038;28;20234;-83
2023/09/08 05:09:59;;;;;;;0.00;0.00;;;;;;;;;;1735786;28;20234;-82
2023/09/08 05:10:52;;;;;;;0.00;0.00;;;;;;;;;;1735376;28;20232;-83
2023/09/08 05:11:43;;;;;;;0.00;0.00;;;;;;;;;;1737636;28;20214;-84